Conconully, Washington
Current Conditions -  °F | °C
As of 4:53 AM on Wednesday 22 Oct 2014 (Local Time) from KOMK Reporting Station
Light Rain Light Rain  
Wind Chill: 42°   Ceiling: 5500
Heat Index: 47°   Visibility: 10mi
Dew Point: 44°   Wind: 10mph
Humidity: 90%   Direction: 200°SSW
Pressure: 29.84"   Gusts: NA
Location:  48.56°N, 119.75°W
Report Text: KOMK 221153Z AUTO 20009KT 10SM -RA OVC055 08/07 A2984 RMK AO2 SLP105 P0002 60002 70002 T00830067 10111 20083 58014
Loading
Personal Weather Stations






























Interactive Weather Map
Tropical Storm Tracking
New forecast layout! Learn more

10-Day Weather Forecast

Advertisements
Track Severe Weather on mobile